createdAt,value
2022-12-26T00:01:26.828Z,99754.00
2022-12-26T00:03:55.541Z,99732.00
2022-12-26T00:06:26.582Z,99752.00
2022-12-26T00:08:54.961Z,99738.00
2022-12-26T00:11:23.624Z,99750.00
2022-12-26T00:14:05.513Z,99738.00
2022-12-26T00:16:33.920Z,99746.00
2022-12-26T00:19:03.954Z,99715.00
2022-12-26T00:21:32.193Z,99737.00
2022-12-26T00:24:01.341Z,99741.00
2022-12-26T00:26:32.371Z,99741.00
2022-12-26T00:29:00.509Z,99741.00
2022-12-26T00:31:32.218Z,99753.00
2022-12-26T00:34:01.093Z,99756.00
2022-12-26T00:36:31.639Z,99752.00
2022-12-26T00:39:01.321Z,99749.00
2022-12-26T00:41:29.946Z,99758.00
2022-12-26T00:43:58.549Z,99756.00
2022-12-26T00:46:27.608Z,99768.00
2022-12-26T00:48:55.935Z,99778.00
2022-12-26T00:51:24.430Z,99764.00
2022-12-26T00:53:52.476Z,99769.00
2022-12-26T00:56:20.297Z,99766.00
2022-12-26T00:58:48.339Z,99773.00
2022-12-26T01:01:22.772Z,99775.00
2022-12-26T01:03:51.516Z,99771.00
2022-12-26T01:06:19.896Z,99773.00
2022-12-26T01:08:47.761Z,99776.00
2022-12-26T01:11:37.112Z,99784.00
2022-12-26T01:14:05.860Z,99779.00
2022-12-26T01:16:33.750Z,99769.00
2022-12-26T01:19:02.283Z,99782.00
2022-12-26T01:21:30.152Z,99770.00
2022-12-26T01:23:58.532Z,99771.00
2022-12-26T01:26:26.555Z,99787.00
2022-12-26T01:28:54.605Z,99765.00
2022-12-26T01:31:23.400Z,99749.00
2022-12-26T01:33:51.553Z,99764.00
2022-12-26T01:36:19.385Z,99760.00
2022-12-26T01:38:47.473Z,99758.00
2022-12-26T01:41:20.495Z,99759.00
2022-12-26T01:44:00.835Z,99762.00
2022-12-26T01:46:36.361Z,99756.00
2022-12-26T01:49:29.179Z,99754.00
2022-12-26T01:52:01.177Z,99753.00
2022-12-26T01:54:38.419Z,99761.00
2022-12-26T01:57:18.164Z,99747.00
2022-12-26T01:59:46.595Z,99751.00
2022-12-26T02:02:15.410Z,99754.00
2022-12-26T02:05:07.649Z,99751.00
2022-12-26T02:07:38.995Z,99778.00
2022-12-26T02:10:10.151Z,99786.00
2022-12-26T02:12:39.472Z,99790.00
2022-12-26T02:15:13.919Z,99787.00
2022-12-26T02:17:42.903Z,99785.00
2022-12-26T02:20:29.807Z,99783.00
2022-12-26T02:23:50.672Z,99785.00
2022-12-26T02:26:21.231Z,99793.00
2022-12-26T02:29:20.860Z,99795.00
2022-12-26T02:32:06.158Z,99767.00
2022-12-26T02:34:48.181Z,99772.00
2022-12-26T02:37:30.370Z,99777.00
2022-12-26T02:40:13.817Z,99790.00
2022-12-26T02:42:52.344Z,99787.00
2022-12-26T02:46:03.332Z,99780.00
2022-12-26T02:48:46.876Z,99780.00
2022-12-26T02:51:57.736Z,99778.00
2022-12-26T02:55:03.063Z,99774.00
2022-12-26T02:58:00.877Z,99771.00
2022-12-26T03:00:47.580Z,99767.00
2022-12-26T03:03:37.717Z,99769.00
2022-12-26T03:06:40.469Z,99783.00
2022-12-26T03:09:48.501Z,99775.00
2022-12-26T03:12:37.748Z,99775.00
2022-12-26T03:15:11.736Z,99766.00
2022-12-26T03:18:02.068Z,99764.00
2022-12-26T03:20:34.009Z,99783.00
2022-12-26T03:23:12.394Z,99810.00
2022-12-26T03:26:05.244Z,99799.00
2022-12-26T03:28:33.360Z,99802.00
2022-12-26T03:31:05.577Z,99793.00
2022-12-26T03:33:53.957Z,99791.00
2022-12-26T03:36:34.703Z,99783.00
2022-12-26T03:39:11.181Z,99789.00
2022-12-26T03:42:14.735Z,99791.00
2022-12-26T03:45:46.188Z,99788.00
2022-12-26T03:48:40.703Z,99809.00
2022-12-26T03:51:30.926Z,99791.00
2022-12-26T03:54:31.198Z,99799.00
2022-12-26T03:57:24.898Z,99794.00
2022-12-26T04:00:16.899Z,99785.00
2022-12-26T04:03:05.205Z,99789.00
2022-12-26T04:05:53.822Z,99803.00
2022-12-26T04:08:45.918Z,99797.00
2022-12-26T04:11:36.675Z,99804.00
2022-12-26T04:14:41.079Z,99810.00
2022-12-26T04:18:12.652Z,99822.00
2022-12-26T04:20:53.305Z,99824.00
2022-12-26T04:24:06.328Z,99818.00
2022-12-26T04:26:56.443Z,99832.00
2022-12-26T04:29:42.939Z,99813.00
2022-12-26T04:32:39.559Z,99821.00
2022-12-26T04:35:45.111Z,99818.00
2022-12-26T04:38:34.853Z,99826.00
2022-12-26T04:41:22.158Z,99829.00
2022-12-26T04:44:05.235Z,99825.00
2022-12-26T04:46:35.703Z,99830.00
2022-12-26T04:49:28.895Z,99828.00
2022-12-26T04:52:01.512Z,99838.00
2022-12-26T04:54:29.775Z,99830.00
2022-12-26T04:56:57.732Z,99831.00
2022-12-26T04:59:26.302Z,99826.00
2022-12-26T05:02:12.800Z,99823.00
2022-12-26T05:04:59.224Z,99830.00
2022-12-26T05:07:57.262Z,99812.00
2022-12-26T05:10:27.233Z,99826.00
2022-12-26T05:12:55.500Z,99831.00
2022-12-26T05:15:23.595Z,99830.00
2022-12-26T05:18:09.973Z,99830.00
2022-12-26T05:21:09.399Z,99826.00
2022-12-26T05:23:55.830Z,99826.00
2022-12-26T05:26:43.214Z,99817.00
2022-12-26T05:29:11.127Z,99807.00
2022-12-26T05:31:38.985Z,99812.00
2022-12-26T05:34:12.895Z,99821.00
2022-12-26T05:36:56.669Z,99821.00
2022-12-26T05:39:25.613Z,99835.00
2022-12-26T05:41:53.354Z,99840.00
2022-12-26T05:44:21.252Z,99834.00
2022-12-26T05:46:50.086Z,99853.00
2022-12-26T05:49:18.071Z,99852.00
2022-12-26T05:51:45.935Z,99856.00
2022-12-26T05:54:13.888Z,99854.00
2022-12-26T05:56:47.477Z,99857.00
2022-12-26T05:59:17.101Z,99858.00
2022-12-26T06:01:44.940Z,99856.00
2022-12-26T06:04:12.731Z,99871.00
2022-12-26T06:06:40.615Z,99857.00
2022-12-26T06:09:08.487Z,99862.00
2022-12-26T06:11:36.364Z,99871.00
2022-12-26T06:14:05.042Z,99876.00
2022-12-26T06:16:33.022Z,99880.00
2022-12-26T06:19:00.770Z,99883.00
2022-12-26T06:21:28.652Z,99877.00
2022-12-26T06:23:56.565Z,99873.00
2022-12-26T06:26:24.298Z,99877.00
2022-12-26T06:28:52.169Z,99867.00
2022-12-26T06:31:22.499Z,99875.00
2022-12-26T06:33:52.792Z,99890.00
2022-12-26T06:36:22.845Z,99884.00
2022-12-26T06:38:51.025Z,99874.00
2022-12-26T06:41:20.442Z,99871.00
2022-12-26T06:43:49.034Z,99861.00
2022-12-26T06:46:22.927Z,99861.00
2022-12-26T06:48:51.514Z,99869.00
2022-12-26T06:51:24.682Z,99866.00
2022-12-26T06:53:53.507Z,99864.00
2022-12-26T06:56:25.760Z,99869.00
2022-12-26T06:58:55.032Z,99876.00
2022-12-26T07:01:24.098Z,99881.00
2022-12-26T07:03:54.007Z,99886.00
2022-12-26T07:06:29.225Z,99891.00
2022-12-26T07:09:02.512Z,99906.00
2022-12-26T07:11:32.699Z,99896.00
2022-12-26T07:14:01.035Z,99900.00
2022-12-26T07:16:29.352Z,99902.00
2022-12-26T07:18:58.353Z,99904.00
2022-12-26T07:21:27.271Z,99899.00
2022-12-26T07:23:56.170Z,99894.00
2022-12-26T07:26:25.405Z,99898.00
2022-12-26T07:28:58.354Z,99895.00
2022-12-26T07:31:28.577Z,99895.00
2022-12-26T07:33:57.598Z,99904.00
2022-12-26T07:36:25.998Z,99916.00
2022-12-26T07:38:53.998Z,99908.00
2022-12-26T07:41:40.784Z,99917.00
2022-12-26T07:44:10.611Z,99923.00
2022-12-26T07:46:38.614Z,99929.00
2022-12-26T07:49:06.603Z,99928.00
2022-12-26T07:51:34.522Z,99937.00
2022-12-26T07:54:07.299Z,99941.00
2022-12-26T07:56:39.368Z,99942.00
2022-12-26T07:59:07.208Z,99941.00
2022-12-26T08:01:35.352Z,99930.00
2022-12-26T08:04:03.416Z,99944.00
2022-12-26T08:06:31.328Z,99947.00
2022-12-26T08:08:59.155Z,99947.00
2022-12-26T08:11:27.191Z,99948.00
2022-12-26T08:13:55.847Z,99950.00
2022-12-26T08:16:23.714Z,99952.00
2022-12-26T08:18:51.703Z,99947.00
2022-12-26T08:21:19.498Z,99948.00
2022-12-26T08:23:48.536Z,99942.00
2022-12-26T08:26:22.805Z,99942.00
2022-12-26T08:28:54.766Z,99948.00
2022-12-26T08:33:51.640Z,99957.00
2022-12-26T08:36:19.764Z,99951.00
2022-12-26T08:38:48.014Z,99969.00
2022-12-26T08:41:17.808Z,99968.00
2022-12-26T08:46:40.020Z,99975.00
2022-12-26T08:49:07.890Z,99966.00
2022-12-26T08:51:35.646Z,99969.00
2022-12-26T08:54:03.718Z,99977.00
2022-12-26T08:56:31.743Z,99979.00
2022-12-26T08:58:59.704Z,99978.00
2022-12-26T09:01:30.060Z,99972.00
2022-12-26T09:04:01.194Z,99972.00
2022-12-26T09:06:30.002Z,99972.00
2022-12-26T09:08:59.006Z,99966.00
2022-12-26T09:11:27.660Z,99973.00
2022-12-26T09:13:56.927Z,99982.00
2022-12-26T09:16:30.441Z,99996.00
2022-12-26T09:19:01.949Z,99996.00
2022-12-26T09:21:30.452Z,100003.00
2022-12-26T09:24:00.777Z,100000.00
2022-12-26T09:26:29.451Z,99973.00
2022-12-26T09:28:58.003Z,99977.00
2022-12-26T09:31:33.177Z,99984.00
2022-12-26T09:34:06.722Z,99982.00
2022-12-26T09:36:38.401Z,99996.00
2022-12-26T09:39:06.621Z,100006.00
2022-12-26T09:41:43.760Z,100014.00
2022-12-26T09:44:26.444Z,100018.00
2022-12-26T09:47:08.537Z,100021.00
2022-12-26T09:49:49.016Z,100029.00
2022-12-26T09:52:20.082Z,100017.00
2022-12-26T09:54:59.886Z,100006.00
2022-12-26T09:57:39.531Z,100002.00
2022-12-26T10:00:08.241Z,99996.00
2022-12-26T10:02:44.708Z,99998.00
2022-12-26T10:05:14.900Z,99990.00
2022-12-26T10:07:55.629Z,99991.00
2022-12-26T10:10:38.133Z,100002.00
2022-12-26T10:13:18.019Z,100017.00
2022-12-26T10:15:53.981Z,100024.00
2022-12-26T10:18:39.851Z,100020.00
2022-12-26T10:21:30.248Z,100013.00
2022-12-26T10:24:09.407Z,100009.00
2022-12-26T10:26:41.815Z,100015.00
2022-12-26T10:29:09.613Z,100010.00
2022-12-26T10:31:47.463Z,100003.00
2022-12-26T10:34:25.206Z,99999.00
2022-12-26T10:36:56.133Z,99986.00
2022-12-26T10:39:39.675Z,99995.00
2022-12-26T10:42:31.427Z,100008.00
2022-12-26T10:45:01.617Z,99998.00
2022-12-26T10:47:39.855Z,99996.00
2022-12-26T10:50:10.374Z,100005.00
2022-12-26T10:52:39.720Z,99998.00
2022-12-26T10:55:27.975Z,99998.00
2022-12-26T10:58:06.906Z,99996.00
2022-12-26T11:00:35.693Z,99992.00
2022-12-26T11:03:14.613Z,99995.00
2022-12-26T11:06:06.840Z,99999.00
2022-12-26T11:08:43.674Z,99996.00
2022-12-26T11:11:21.771Z,100006.00
2022-12-26T11:14:03.015Z,100006.00
2022-12-26T11:16:35.411Z,100000.00
2022-12-26T11:19:03.913Z,99998.00
2022-12-26T11:21:33.224Z,99994.00
2022-12-26T11:24:09.776Z,99992.00
2022-12-26T11:26:38.742Z,99992.00
2022-12-26T11:29:15.393Z,99992.00
2022-12-26T11:31:59.479Z,100000.00
2022-12-26T11:34:46.256Z,99993.00
2022-12-26T11:37:45.190Z,99992.00
2022-12-26T11:40:24.117Z,99989.00
2022-12-26T11:42:57.557Z,99984.00
2022-12-26T11:45:29.967Z,99978.00
2022-12-26T11:48:01.799Z,99982.00
2022-12-26T11:50:35.618Z,99973.00
2022-12-26T11:53:05.294Z,99976.00
2022-12-26T11:55:39.380Z,99969.00
2022-12-26T11:58:10.687Z,99971.00
2022-12-26T12:01:08.244Z,99973.00
2022-12-26T12:03:51.322Z,99974.00
2022-12-26T12:06:58.862Z,99976.00
2022-12-26T12:09:46.784Z,99975.00
2022-12-26T12:12:34.685Z,99977.00
2022-12-26T12:15:36.873Z,99984.00
2022-12-26T12:18:30.555Z,99977.00
2022-12-26T12:21:35.810Z,99982.00
2022-12-26T12:24:17.370Z,99978.00
2022-12-26T12:27:20.393Z,99977.00
2022-12-26T12:30:00.719Z,99977.00
2022-12-26T12:32:37.573Z,99976.00
2022-12-26T12:35:54.696Z,99982.00
2022-12-26T12:38:42.610Z,99980.00
2022-12-26T12:41:25.974Z,99977.00
2022-12-26T12:44:16.973Z,99995.00
2022-12-26T12:46:55.484Z,99975.00
2022-12-26T12:49:41.780Z,99980.00
2022-12-26T12:52:42.552Z,99966.00
2022-12-26T12:55:31.024Z,99980.00
2022-12-26T12:58:23.698Z,99983.00
2022-12-26T13:01:07.129Z,99981.00
2022-12-26T13:04:09.061Z,99978.00
2022-12-26T13:06:44.343Z,99979.00
2022-12-26T13:09:50.975Z,99983.00
2022-12-26T13:12:28.806Z,99976.00
2022-12-26T13:15:03.847Z,99980.00
2022-12-26T13:17:41.706Z,99972.00
2022-12-26T13:20:19.842Z,99976.00
2022-12-26T13:23:10.570Z,99971.00
2022-12-26T13:25:46.178Z,99970.00
2022-12-26T13:28:18.826Z,99967.00
2022-12-26T13:30:46.942Z,99959.00
2022-12-26T13:33:16.332Z,99960.00
2022-12-26T13:35:56.421Z,99972.00
2022-12-26T13:38:27.012Z,99955.00
2022-12-26T13:41:23.467Z,99966.00
2022-12-26T13:44:07.774Z,99961.00
2022-12-26T13:46:42.455Z,99964.00
2022-12-26T13:49:39.085Z,99958.00
2022-12-26T13:52:15.115Z,99960.00
2022-12-26T13:54:48.959Z,99959.00
2022-12-26T13:57:35.077Z,99955.00
2022-12-26T14:00:18.352Z,99957.00
2022-12-26T14:03:19.604Z,99968.00
2022-12-26T14:05:58.033Z,99965.00
2022-12-26T14:08:38.815Z,99960.00
2022-12-26T14:11:36.206Z,99971.00
2022-12-26T14:14:36.477Z,99967.00
2022-12-26T14:17:14.365Z,99965.00
2022-12-26T14:20:09.451Z,99955.00
2022-12-26T14:23:16.511Z,99965.00
2022-12-26T14:26:21.591Z,99970.00
2022-12-26T14:29:04.398Z,99977.00
2022-12-26T14:32:07.768Z,99968.00
2022-12-26T14:34:59.190Z,99966.00
2022-12-26T14:37:42.609Z,99978.00
2022-12-26T14:40:22.727Z,99971.00
2022-12-26T14:43:12.111Z,99979.00
2022-12-26T14:45:52.865Z,99987.00
2022-12-26T14:48:23.562Z,99975.00
2022-12-26T14:51:20.553Z,99985.00
2022-12-26T14:54:14.338Z,99969.00
2022-12-26T14:56:43.042Z,99974.00
2022-12-26T14:59:31.306Z,99977.00
2022-12-26T15:02:16.508Z,99980.00
2022-12-26T15:04:59.591Z,100008.00
2022-12-26T15:07:36.621Z,100023.00
2022-12-26T15:10:23.060Z,100053.00
2022-12-26T15:13:18.763Z,100064.00
2022-12-26T15:16:29.127Z,100061.00
2022-12-26T15:19:33.704Z,100067.00
2022-12-26T15:22:43.942Z,100087.00
2022-12-26T15:25:41.009Z,100093.00
2022-12-26T15:28:38.995Z,100092.00
2022-12-26T15:31:47.155Z,100092.00
2022-12-26T15:34:37.342Z,100090.00
2022-12-26T15:37:17.555Z,100080.00
2022-12-26T15:39:48.193Z,100087.00
2022-12-26T15:42:35.068Z,100096.00
2022-12-26T15:45:39.031Z,100100.00
2022-12-26T15:48:25.326Z,100107.00
2022-12-26T15:50:59.688Z,100113.00
2022-12-26T15:53:47.333Z,100127.00
2022-12-26T15:56:52.721Z,100129.00
2022-12-26T15:59:41.705Z,100130.00
2022-12-26T16:02:33.274Z,100141.00
2022-12-26T16:05:37.632Z,100143.00
2022-12-26T16:08:12.468Z,100146.00
2022-12-26T16:10:40.707Z,100149.00
2022-12-26T16:13:23.115Z,100149.00
2022-12-26T16:15:58.932Z,100156.00
2022-12-26T16:18:29.285Z,100165.00
2022-12-26T16:21:18.639Z,100169.00
2022-12-26T16:23:47.729Z,100179.00
2022-12-26T16:26:22.991Z,100172.00
2022-12-26T16:28:50.973Z,100185.00
2022-12-26T16:31:25.553Z,100187.00
2022-12-26T16:33:55.263Z,100182.00
2022-12-26T16:36:28.772Z,100195.00
2022-12-26T16:38:57.241Z,100198.00
2022-12-26T16:41:30.848Z,100205.00
2022-12-26T16:44:20.079Z,100213.00
2022-12-26T16:46:50.509Z,100225.00
2022-12-26T16:49:25.799Z,100237.00
2022-12-26T16:51:55.084Z,100242.00
2022-12-26T16:54:23.490Z,100239.00
2022-12-26T16:57:29.614Z,100255.00
2022-12-26T17:00:18.819Z,100248.00
2022-12-26T17:02:50.410Z,100263.00
2022-12-26T17:05:22.539Z,100266.00
2022-12-26T17:07:51.980Z,100270.00
2022-12-26T17:10:33.622Z,100280.00
2022-12-26T17:13:04.476Z,100274.00
2022-12-26T17:15:35.236Z,100285.00
2022-12-26T17:18:45.149Z,100279.00
2022-12-26T17:21:33.335Z,100269.00
2022-12-26T17:24:26.027Z,100276.00
2022-12-26T17:27:16.979Z,100286.00
2022-12-26T17:29:49.288Z,100284.00
2022-12-26T17:32:31.293Z,100288.00
2022-12-26T17:35:10.964Z,100280.00
2022-12-26T17:37:39.052Z,100281.00
2022-12-26T17:40:40.447Z,100291.00
2022-12-26T17:43:14.457Z,100278.00
2022-12-26T17:45:46.862Z,100266.00
2022-12-26T17:48:15.418Z,100266.00
2022-12-26T17:50:50.383Z,100260.00
2022-12-26T17:53:38.692Z,100271.00
2022-12-26T17:56:16.046Z,100271.00
2022-12-26T17:58:45.328Z,100280.00
2022-12-26T18:01:18.997Z,100282.00
2022-12-26T18:03:48.915Z,100280.00
2022-12-26T18:06:17.543Z,100287.00
2022-12-26T18:08:45.884Z,100294.00
2022-12-26T18:11:15.114Z,100295.00
2022-12-26T18:13:44.501Z,100297.00
2022-12-26T18:16:19.829Z,100312.00
2022-12-26T18:18:48.581Z,100320.00
2022-12-26T18:21:17.150Z,100323.00
2022-12-26T18:23:45.025Z,100317.00
2022-12-26T18:26:22.738Z,100319.00
2022-12-26T18:28:50.982Z,100313.00
2022-12-26T18:31:19.065Z,100324.00
2022-12-26T18:33:46.851Z,100325.00
2022-12-26T18:36:15.853Z,100334.00
2022-12-26T18:38:43.906Z,100343.00
2022-12-26T18:41:16.356Z,100347.00
2022-12-26T18:43:44.353Z,100353.00
2022-12-26T18:46:20.417Z,100348.00
2022-12-26T18:48:49.188Z,100342.00
2022-12-26T18:51:17.246Z,100348.00
2022-12-26T18:53:45.153Z,100354.00
2022-12-26T18:56:18.656Z,100352.00
2022-12-26T18:58:52.410Z,100346.00
2022-12-26T19:01:26.920Z,100344.00
2022-12-26T19:03:55.448Z,100340.00
2022-12-26T19:06:29.666Z,100343.00
2022-12-26T19:08:58.991Z,100355.00
2022-12-26T19:11:26.948Z,100376.00
2022-12-26T19:13:54.891Z,100361.00
2022-12-26T19:16:23.527Z,100363.00
2022-12-26T19:18:51.821Z,100366.00
2022-12-26T19:21:19.829Z,100383.00
2022-12-26T19:23:48.148Z,100373.00
2022-12-26T19:26:18.502Z,100378.00
2022-12-26T19:28:50.916Z,100382.00
2022-12-26T19:31:18.970Z,100375.00
2022-12-26T19:33:46.729Z,100378.00
2022-12-26T19:36:15.296Z,100389.00
2022-12-26T19:38:43.825Z,100387.00
2022-12-26T19:41:15.624Z,100394.00
2022-12-26T19:43:43.640Z,100406.00
2022-12-26T19:46:13.258Z,100401.00
2022-12-26T19:48:41.553Z,100414.00
2022-12-26T19:51:13.091Z,100428.00
2022-12-26T19:53:42.221Z,100435.00
2022-12-26T19:56:12.089Z,100429.00
2022-12-26T19:58:40.170Z,100432.00
2022-12-26T20:01:17.908Z,100441.00
2022-12-26T20:03:46.392Z,100448.00
2022-12-26T20:06:22.058Z,100457.00
2022-12-26T20:08:51.013Z,100451.00
2022-12-26T20:11:22.740Z,100448.00
2022-12-26T20:13:50.643Z,100457.00
2022-12-26T20:17:03.208Z,100464.00
2022-12-26T20:19:11.455Z,100471.00
2022-12-26T20:21:39.476Z,100470.00
2022-12-26T20:24:07.672Z,100474.00
2022-12-26T20:26:35.590Z,100476.00
2022-12-26T20:29:03.827Z,100477.00
2022-12-26T20:31:33.155Z,100479.00
2022-12-26T20:34:02.728Z,100480.00
2022-12-26T20:36:33.822Z,100487.00
2022-12-26T20:39:04.253Z,100493.00
2022-12-26T20:41:32.260Z,100497.00
2022-12-26T20:44:00.379Z,100498.00
2022-12-26T20:46:34.301Z,100507.00
2022-12-26T20:49:05.099Z,100511.00
2022-12-26T20:51:37.709Z,100517.00
2022-12-26T20:54:07.827Z,100520.00
2022-12-26T20:56:36.985Z,100505.00
2022-12-26T20:59:08.464Z,100505.00
2022-12-26T21:01:38.282Z,100507.00
2022-12-26T21:04:07.292Z,100507.00
2022-12-26T21:06:37.603Z,100514.00
2022-12-26T21:09:06.935Z,100512.00
2022-12-26T21:11:39.250Z,100519.00
2022-12-26T21:14:10.542Z,100523.00
2022-12-26T21:16:56.697Z,100529.00
2022-12-26T21:19:26.721Z,100534.00
2022-12-26T21:21:55.481Z,100540.00
2022-12-26T21:24:29.682Z,100542.00
2022-12-26T21:26:58.249Z,100563.00
2022-12-26T21:29:29.063Z,100559.00
2022-12-26T21:31:57.733Z,100553.00
2022-12-26T21:34:28.178Z,100566.00
2022-12-26T21:37:15.023Z,100560.00
2022-12-26T21:39:43.474Z,100565.00
2022-12-26T21:42:11.986Z,100572.00
2022-12-26T21:44:40.232Z,100580.00
2022-12-26T21:47:11.014Z,100595.00
2022-12-26T21:49:38.993Z,100577.00
2022-12-26T21:52:07.976Z,100589.00
2022-12-26T21:54:54.445Z,100597.00
2022-12-26T21:57:22.509Z,100601.00
2022-12-26T21:59:56.574Z,100607.00
2022-12-26T22:02:44.726Z,100612.00
2022-12-26T22:05:13.185Z,100623.00
2022-12-26T22:07:41.463Z,100619.00
2022-12-26T22:10:30.002Z,100637.00
2022-12-26T22:12:58.565Z,100627.00
2022-12-26T22:15:44.958Z,100622.00
2022-12-26T22:18:13.054Z,100633.00
2022-12-26T22:20:41.670Z,100642.00
2022-12-26T22:23:09.645Z,100641.00
2022-12-26T22:25:37.559Z,100653.00
2022-12-26T22:28:05.372Z,100652.00
2022-12-26T22:30:33.299Z,100656.00
2022-12-26T22:33:01.637Z,100655.00
2022-12-26T22:35:29.419Z,100665.00
2022-12-26T22:37:57.306Z,100666.00
2022-12-26T22:40:25.267Z,100672.00
2022-12-26T22:42:53.092Z,100680.00
2022-12-26T22:45:24.349Z,100676.00
2022-12-26T22:47:52.364Z,100678.00
2022-12-26T22:50:20.298Z,100679.00
2022-12-26T22:52:48.438Z,100687.00
2022-12-26T22:55:17.087Z,100684.00
2022-12-26T22:57:49.656Z,100681.00
2022-12-26T23:00:20.514Z,100677.00
2022-12-26T23:02:48.421Z,100684.00
2022-12-26T23:05:16.967Z,100692.00
2022-12-26T23:07:45.105Z,100693.00
2022-12-26T23:10:19.194Z,100698.00
2022-12-26T23:12:48.073Z,100689.00
2022-12-26T23:15:22.070Z,100695.00
2022-12-26T23:18:16.571Z,100688.00
2022-12-26T23:21:03.615Z,100703.00
2022-12-26T23:23:31.716Z,100710.00
2022-12-26T23:26:02.975Z,100709.00
2022-12-26T23:28:49.207Z,100712.00
2022-12-26T23:31:17.175Z,100705.00
2022-12-26T23:33:45.064Z,100712.00
2022-12-26T23:36:13.277Z,100714.00
2022-12-26T23:38:41.127Z,100712.00
2022-12-26T23:41:09.130Z,100718.00
2022-12-26T23:43:37.229Z,100721.00
2022-12-26T23:46:10.266Z,100720.00
2022-12-26T23:48:38.267Z,100735.00
2022-12-26T23:51:07.424Z,100724.00
2022-12-26T23:53:35.309Z,100725.00
2022-12-26T23:56:03.286Z,100718.00
2022-12-26T23:58:31.252Z,100719.00
